Time;durP1;ratioP1;P1;durP2;ratioP2;P2;SDS_P1;SDS_P2;PMS_P1;PMS_P2;Temp;Humidity;BMP_temperature;BMP_pressure;BME280_temperature;BME280_humidity;BME280_pressure;Samples;Min_cycle;Max_cycle;Signal;HPM_P1;HPM_P2
2023/08/11 00:01:17;;;;;;;7.72;5.65;;;;;;;15.95;94.27;102080.91;6280192;22;20020;-75
2023/08/11 00:03:44;;;;;;;7.70;5.65;;;;;;;15.94;94.78;102086.72;6279961;22;20026;-77
2023/08/11 00:06:11;;;;;;;6.90;6.22;;;;;;;15.87;94.71;102082.38;6252534;22;20030;-77
2023/08/11 00:08:39;;;;;;;6.38;5.88;;;;;;;15.81;95.72;102081.47;6251381;22;20020;-74
2023/08/11 00:11:06;;;;;;;8.40;6.40;;;;;;;15.80;96.07;102073.84;6281028;22;20016;-77
2023/08/11 00:13:33;;;;;;;6.22;5.72;;;;;;;15.77;95.67;102082.78;6280951;22;20410;-77
2023/08/11 00:16:03;;;;;;;6.97;6.28;;;;;;;15.73;95.36;102080.25;6281725;22;20410;-77
2023/08/11 00:18:29;;;;;;;7.30;6.78;;;;;;;15.70;95.96;102083.06;6281162;22;20012;-77
2023/08/11 00:20:56;;;;;;;10.50;6.82;;;;;;;15.63;96.24;102079.47;6281211;22;20434;-78
2023/08/11 00:23:24;;;;;;;6.93;6.32;;;;;;;15.61;95.94;102078.41;6252569;22;20027;-77
2023/08/11 00:25:50;;;;;;;7.43;6.70;;;;;;;15.59;96.08;102078.88;6281945;22;20102;-77
2023/08/11 00:28:17;;;;;;;7.53;6.93;;;;;;;15.57;96.00;102075.88;6281870;22;20020;-77
2023/08/11 00:30:44;;;;;;;8.32;7.68;;;;;;;15.54;96.15;102074.06;6254247;22;20016;-77
2023/08/11 00:33:11;;;;;;;8.80;8.00;;;;;;;15.52;95.92;102075.69;6254068;22;20078;-75
2023/08/11 00:35:37;;;;;;;12.00;8.15;;;;;;;15.50;96.24;102081.47;6253300;22;20021;-75
2023/08/11 00:38:04;;;;;;;9.65;8.80;;;;;;;15.48;96.11;102075.06;6253607;22;20299;-75
2023/08/11 00:40:31;;;;;;;9.18;8.15;;;;;;;15.45;96.10;102079.38;6280875;22;20066;-75
2023/08/11 00:42:57;;;;;;;9.15;7.72;;;;;;;15.46;95.83;102083.56;6254426;22;20102;-75
2023/08/11 00:45:24;;;;;;;8.93;8.02;;;;;;;15.42;95.27;102077.56;6253180;22;20016;-75
2023/08/11 00:47:51;;;;;;;11.48;8.25;;;;;;;15.40;95.98;102076.50;6254021;22;20465;-75
2023/08/11 00:50:18;;;;;;;9.50;8.70;;;;;;;15.35;95.81;102067.84;6281053;22;20016;-77
2023/08/11 00:52:48;;;;;;;13.23;9.27;;;;;;;15.35;95.92;102078.56;6253075;22;20476;-77
2023/08/11 00:55:16;;;;;;;10.45;9.40;;;;;;;15.32;95.85;102068.72;6254001;22;20050;-77
2023/08/11 00:57:43;;;;;;;11.75;9.13;;;;;;;15.29;96.56;102066.16;6281119;22;20383;-77
2023/08/11 01:00:13;;;;;;;13.07;9.55;;;;;;;15.28;96.66;102065.41;6281381;22;20016;-77
2023/08/11 01:02:42;;;;;;;10.65;9.15;;;;;;;15.27;97.32;102057.81;6253542;22;20031;-77
2023/08/11 01:05:15;;;;;;;10.23;9.15;;;;;;;15.25;96.48;102052.88;6253965;22;20020;-77
2023/08/11 01:07:56;;;;;;;9.50;8.57;;;;;;;15.24;97.01;102054.06;6280298;22;20016;-77
2023/08/11 01:10:33;;;;;;;9.00;8.27;;;;;;;15.23;97.61;102049.88;6253472;22;20028;-77
2023/08/11 01:13:10;;;;;;;9.90;8.90;;;;;;;15.22;97.08;102047.66;6281277;22;20043;-77
2023/08/11 01:15:40;;;;;;;8.68;7.82;;;;;;;15.18;97.02;102047.06;6253692;22;20022;-76
2023/08/11 01:18:08;;;;;;;8.95;8.10;;;;;;;15.15;97.33;102045.25;6253678;22;20040;-77
2023/08/11 01:20:35;;;;;;;8.63;7.93;;;;;;;15.15;97.76;102045.25;6279604;22;20016;-77
2023/08/11 01:23:06;;;;;;;9.30;8.27;;;;;;;15.12;97.84;102046.88;6280851;22;20071;-76
2023/08/11 01:25:34;;;;;;;9.98;7.75;;;;;;;15.10;98.27;102043.13;6280567;22;20012;-77
2023/08/11 01:28:00;;;;;;;9.30;7.88;;;;;;;15.08;98.07;102034.78;6281528;22;20019;-76
2023/08/11 01:30:27;;;;;;;8.07;7.38;;;;;;;15.08;97.89;102026.72;6280487;22;20087;-76
2023/08/11 01:32:56;;;;;;;7.47;6.88;;;;;;;15.03;97.77;102025.38;6253785;22;20032;-77
2023/08/11 01:35:23;;;;;;;7.60;6.90;;;;;;;15.00;97.65;102013.59;6252587;22;20331;-76
2023/08/11 01:38:08;;;;;;;11.48;6.75;;;;;;;14.99;97.59;102020.13;6254090;22;20140;-76
2023/08/11 01:40:35;;;;;;;7.72;7.07;;;;;;;14.96;98.27;102018.31;6253578;22;20091;-76
2023/08/11 01:43:05;;;;;;;9.45;7.55;;;;;;;14.93;98.63;102021.88;6281108;22;20769;-76
2023/08/11 01:45:31;;;;;;;7.35;6.78;;;;;;;14.89;99.21;102021.25;6252849;22;20027;-76
2023/08/11 01:48:00;;;;;;;7.57;6.97;;;;;;;14.88;98.87;102027.06;6253738;22;20027;-76
2023/08/11 01:50:28;;;;;;;7.18;6.57;;;;;;;14.87;98.93;102023.63;6252061;22;20074;-76
2023/08/11 01:52:55;;;;;;;8.35;7.20;;;;;;;14.87;98.49;102023.63;6228304;22;20032;-76
2023/08/11 01:55:24;;;;;;;7.53;6.93;;;;;;;14.87;98.85;102017.53;6280873;22;20465;-77
2023/08/11 01:57:52;;;;;;;8.18;7.47;;;;;;;14.85;99.05;102027.94;6281106;22;20012;-76
2023/08/11 02:00:26;;;;;;;8.65;7.80;;;;;;;14.80;99.15;102023.88;6253127;22;20050;-76
2023/08/11 02:02:54;;;;;;;8.13;7.32;;;;;;;14.74;98.53;102025.66;6253628;22;20079;-76
2023/08/11 02:05:24;;;;;;;8.27;7.47;;;;;;;14.74;99.36;102031.00;6252216;22;20469;-77
2023/08/11 02:07:51;;;;;;;8.57;7.38;;;;;;;14.72;98.66;102025.34;6253346;22;20020;-76
2023/08/11 02:10:18;;;;;;;8.32;7.53;;;;;;;14.71;98.69;102010.44;6253280;22;20020;-77
2023/08/11 02:12:45;;;;;;;9.48;8.05;;;;;;;14.69;99.11;102015.50;6253706;22;20031;-76
2023/08/11 02:15:11;;;;;;;8.48;7.80;;;;;;;14.69;99.40;102007.44;6253872;22;20450;-76
2023/08/11 02:17:38;;;;;;;7.97;7.18;;;;;;;14.66;99.65;102003.72;6253178;22;20498;-76
2023/08/11 02:20:17;;;;;;;8.32;7.50;;;;;;;14.65;99.56;102006.81;6280494;22;20426;-77
2023/08/11 02:22:44;;;;;;;8.60;7.90;;;;;;;14.63;99.35;102006.50;6228791;22;20024;-77
2023/08/11 02:25:12;;;;;;;8.65;7.93;;;;;;;14.62;100.00;102005.00;6281345;22;20017;-77
2023/08/11 02:27:38;;;;;;;8.40;7.70;;;;;;;14.60;99.80;102015.41;6252856;22;20138;-77
2023/08/11 02:30:06;;;;;;;12.48;8.40;;;;;;;14.57;100.00;102005.56;6253601;22;20023;-77
2023/08/11 02:32:33;;;;;;;8.93;8.05;;;;;;;14.57;100.00;102010.94;6252612;22;20485;-77
2023/08/11 02:35:00;;;;;;;9.68;8.88;;;;;;;14.53;100.00;102011.06;6280440;22;20075;-77
2023/08/11 02:37:26;;;;;;;10.35;8.05;;;;;;;14.54;100.00;102014.47;6227613;22;20021;-77
2023/08/11 02:39:53;;;;;;;9.15;7.97;;;;;;;14.51;99.53;102012.66;6253700;22;20051;-77
2023/08/11 02:42:20;;;;;;;11.88;8.60;;;;;;;14.50;100.00;102013.84;6252800;22;20028;-77
2023/08/11 02:44:48;;;;;;;9.38;8.48;;;;;;;14.46;100.00;102016.66;6253410;22;20103;-77
2023/08/11 02:47:16;;;;;;;12.05;8.25;;;;;;;14.43;100.00;102019.44;6253296;22;20103;-77
2023/08/11 02:49:43;;;;;;;8.88;7.40;;;;;;;14.40;99.71;102017.59;6252765;22;20027;-77
2023/08/11 02:52:10;;;;;;;8.20;7.53;;;;;;;14.39;99.78;102013.47;6280828;22;20016;-77
2023/08/11 02:54:37;;;;;;;10.07;7.65;;;;;;;14.37;100.00;102023.84;6252460;22;20183;-77
2023/08/11 02:57:04;;;;;;;8.60;7.80;;;;;;;14.33;99.90;102016.69;6253425;22;20099;-77
2023/08/11 02:59:30;;;;;;;8.68;7.72;;;;;;;14.32;100.00;102017.88;6252379;22;20099;-77
2023/08/11 03:01:57;;;;;;;8.77;7.97;;;;;;;14.30;100.00;102022.91;6227858;22;20078;-77
2023/08/11 03:04:23;;;;;;;11.38;8.63;;;;;;;14.29;100.00;102021.41;6252781;22;20389;-77
2023/08/11 03:06:50;;;;;;;8.85;7.97;;;;;;;14.28;100.00;102019.16;6280731;22;20016;-77
2023/08/11 03:09:17;;;;;;;10.23;9.15;;;;;;;14.24;100.00;102015.84;6280496;22;20024;-77
2023/08/11 03:11:44;;;;;;;9.00;8.27;;;;;;;14.22;100.00;102013.63;6227896;22;20025;-77
2023/08/11 03:14:11;;;;;;;8.98;8.18;;;;;;;14.20;100.00;102009.88;6253278;22;20442;-77
2023/08/11 03:16:37;;;;;;;8.88;8.07;;;;;;;14.18;100.00;102010.31;6251720;22;20024;-77
2023/08/11 03:19:04;;;;;;;8.13;7.53;;;;;;;14.17;100.00;102000.78;6253234;22;20016;-77
2023/08/11 03:21:32;;;;;;;8.85;8.05;;;;;;;14.17;100.00;102002.69;6252460;22;20777;-77
2023/08/11 03:23:59;;;;;;;8.80;8.05;;;;;;;14.13;100.00;101997.47;6228086;22;20521;-77
2023/08/11 03:26:26;;;;;;;9.13;8.25;;;;;;;14.12;100.00;102004.00;6252419;22;20569;-77
2023/08/11 03:28:54;;;;;;;8.10;7.40;;;;;;;14.11;100.00;102004.44;6252830;22;20078;-77
2023/08/11 03:31:22;;;;;;;10.15;7.70;;;;;;;14.08;100.00;102003.38;6251165;22;20115;-77
2023/08/11 03:33:51;;;;;;;8.70;7.90;;;;;;;14.06;100.00;101996.94;6280587;22;20504;-77
2023/08/11 03:36:17;;;;;;;10.35;8.10;;;;;;;14.04;100.00;101994.69;6253028;22;20529;-77
2023/08/11 03:38:46;;;;;;;8.45;7.70;;;;;;;14.02;100.00;101992.44;6228018;22;20143;-77
2023/08/11 03:41:13;;;;;;;8.73;7.93;;;;;;;14.01;100.00;101990.22;6253127;22;20020;-77
2023/08/11 03:43:39;;;;;;;8.13;7.40;;;;;;;13.99;100.00;101987.25;6227022;22;20099;-77
2023/08/11 03:46:06;;;;;;;8.57;7.07;;;;;;;13.97;100.00;101992.28;6228224;22;20047;-77
2023/08/11 03:48:34;;;;;;;7.57;6.82;;;;;;;13.92;100.00;101988.22;6253363;22;20016;-77
2023/08/11 03:51:02;;;;;;;7.65;6.95;;;;;;;13.90;99.93;101993.25;6254041;22;20024;-77
2023/08/11 03:53:30;;;;;;;7.72;6.90;;;;;;;13.90;100.00;101990.56;6253453;22;20341;-77
2023/08/11 03:55:57;;;;;;;7.20;6.70;;;;;;;13.89;100.00;101991.75;6254492;22;20016;-77
2023/08/11 03:58:26;;;;;;;7.70;7.00;;;;;;;13.86;100.00;101991.88;6253404;22;20028;-77
2023/08/11 04:00:54;;;;;;;7.30;6.70;;;;;;;13.83;100.00;101990.06;6228347;22;20055;-77
2023/08/11 04:03:27;;;;;;;7.40;6.70;;;;;;;13.82;100.00;101989.31;6253246;22;20047;-77
2023/08/11 04:05:54;;;;;;;7.25;6.75;;;;;;;13.82;100.00;101986.63;6281678;22;20020;-77
2023/08/11 04:08:21;;;;;;;8.45;7.07;;;;;;;13.82;100.00;101973.25;6253424;22;20024;-77
2023/08/11 04:10:48;;;;;;;7.50;6.90;;;;;;;13.81;100.00;101985.13;6254405;22;20122;-77
2023/08/11 04:13:15;;;;;;;7.53;6.85;;;;;;;13.79;100.00;101973.34;6228860;22;20020;-77
2023/08/11 04:15:42;;;;;;;7.32;6.72;;;;;;;13.79;100.00;101978.72;6252595;22;20418;-77
2023/08/11 04:18:10;;;;;;;7.88;7.18;;;;;;;13.76;100.00;101977.63;6254253;22;20024;-77
2023/08/11 04:20:37;;;;;;;7.25;6.65;;;;;;;13.75;100.00;101978.81;6227959;22;20522;-77
2023/08/11 04:23:04;;;;;;;7.15;6.50;;;;;;;13.75;100.00;101973.47;6254017;22;20023;-77
2023/08/11 04:25:32;;;;;;;7.20;6.60;;;;;;;13.76;100.00;101976.88;6253089;22;20016;-77
2023/08/11 04:28:02;;;;;;;7.13;6.43;;;;;;;13.76;100.00;101974.22;6228745;22;20028;-77
2023/08/11 04:30:29;;;;;;;6.85;6.32;;;;;;;13.75;100.00;101968.13;6252579;22;20090;-77
2023/08/11 04:32:57;;;;;;;6.88;6.28;;;;;;;13.78;100.00;101977.22;6254153;22;20016;-77
2023/08/11 04:35:24;;;;;;;7.60;5.90;;;;;;;13.78;100.00;101961.91;6253532;22;20020;-77
2023/08/11 04:37:51;;;;;;;9.60;6.72;;;;;;;13.79;100.00;101970.69;6253999;22;20020;-77
2023/08/11 04:40:20;;;;;;;6.65;6.25;;;;;;;13.81;100.00;101971.75;6253330;22;20024;-77
2023/08/11 04:42:49;;;;;;;7.38;6.75;;;;;;;13.82;100.00;101967.13;6229205;22;20016;-77
2023/08/11 04:45:20;;;;;;;6.75;6.25;;;;;;;13.84;100.00;101962.84;6252819;22;20394;-77
2023/08/11 04:47:46;;;;;;;7.20;6.50;;;;;;;13.85;100.00;101964.34;6281016;22;20024;-77
2023/08/11 04:50:18;;;;;;;7.60;6.85;;;;;;;13.89;100.00;101964.25;6253678;22;20099;-77
2023/08/11 04:52:47;;;;;;;9.95;7.25;;;;;;;13.91;100.00;101957.28;6253628;22;20055;-77
2023/08/11 04:55:15;;;;;;;8.75;7.28;;;;;;;13.95;100.00;101963.25;6254241;22;20086;-77
2023/08/11 04:57:42;;;;;;;8.30;7.50;;;;;;;13.99;100.00;101960.47;6280162;22;20016;-77
2023/08/11 05:00:16;;;;;;;9.43;7.78;;;;;;;14.05;100.00;101960.63;6253348;22;20524;-77
2023/08/11 05:02:44;;;;;;;9.10;7.78;;;;;;;14.07;100.00;101950.25;6280634;22;20019;-77
2023/08/11 05:05:11;;;;;;;8.07;7.38;;;;;;;14.12;100.00;101947.03;6281356;22;20439;-77
2023/08/11 05:07:39;;;;;;;11.52;8.70;;;;;;;14.18;100.00;101948.72;6280746;22;20442;-77
2023/08/11 05:10:06;;;;;;;8.77;8.07;;;;;;;14.25;100.00;101945.78;6253685;22;20474;-77
2023/08/11 05:12:33;;;;;;;11.45;8.68;;;;;;;14.34;100.00;101942.44;6280026;22;20036;-77
2023/08/11 05:15:00;;;;;;;8.73;7.93;;;;;;;14.43;100.00;101941.75;6253902;22;20016;-77
2023/08/11 05:17:26;;;;;;;11.75;9.75;;;;;;;15.40;100.00;101937.72;6253225;22;20020;-77
2023/08/11 05:19:53;;;;;;;10.25;9.32;;;;;;;17.13;91.70;101947.59;6281037;22;20016;-78
2023/08/11 05:22:19;;;;;;;11.25;10.07;;;;;;;18.51;82.94;101947.31;6280507;22;20019;-78
2023/08/11 05:24:46;;;;;;;11.95;10.02;;;;;;;19.63;76.60;101939.63;6281599;22;20095;-78
2023/08/11 05:27:14;;;;;;;11.23;8.65;;;;;;;20.54;71.59;101939.31;6253653;22;20020;-78
2023/08/11 05:29:46;;;;;;;10.57;9.20;;;;;;;21.38;68.49;101940.59;6253301;22;20440;-75
2023/08/11 05:32:12;;;;;;;9.82;9.02;;;;;;;22.04;64.99;101936.63;6228777;22;20020;-77
2023/08/11 05:34:39;;;;;;;11.85;9.32;;;;;;;22.67;62.78;101941.56;6253478;22;20465;-77
2023/08/11 05:37:06;;;;;;;12.18;9.73;;;;;;;23.16;60.65;101947.44;6281056;22;20012;-78
2023/08/11 05:39:33;;;;;;;11.13;10.10;;;;;;;23.63;58.52;101942.06;6280376;22;20100;-77
2023/08/11 05:42:01;;;;;;;13.68;10.10;;;;;;;24.09;57.30;101941.28;6280689;22;20017;-77
2023/08/11 05:44:27;;;;;;;12.93;9.60;;;;;;;24.48;56.01;101949.91;6280739;22;20438;-77
2023/08/11 05:46:54;;;;;;;10.77;9.75;;;;;;;24.76;54.34;101952.38;6281245;22;20020;-76
2023/08/11 05:49:21;;;;;;;12.77;10.52;;;;;;;25.03;53.96;101949.91;6280457;22;20016;-76
2023/08/11 05:51:47;;;;;;;12.07;10.85;;;;;;;25.15;53.13;101948.53;6280956;22;20447;-79
2023/08/11 05:54:14;;;;;;;14.05;11.00;;;;;;;25.22;53.22;101942.50;6280816;22;20462;-78
2023/08/11 05:56:40;;;;;;;12.45;11.13;;;;;;;25.17;53.25;101948.75;6279849;22;20442;-77
2023/08/11 05:59:07;;;;;;;13.77;10.70;;;;;;;25.29;53.14;101950.09;6281009;22;20016;-77
2023/08/11 06:01:34;;;;;;;11.32;10.13;;;;;;;25.30;53.17;101959.00;6280391;22;20020;-76
2023/08/11 06:04:02;;;;;;;14.57;10.43;;;;;;;25.34;53.27;101948.56;6281045;22;20040;-76
2023/08/11 06:06:28;;;;;;;15.63;10.65;;;;;;;25.24;53.36;101948.91;6252648;22;20078;-77
2023/08/11 06:08:55;;;;;;;12.65;11.38;;;;;;;24.85;53.90;101952.03;6280541;22;20024;-76
2023/08/11 06:11:22;;;;;;;11.98;10.88;;;;;;;24.37;55.44;101952.75;6279830;22;20074;-76
2023/08/11 06:13:48;;;;;;;14.60;11.00;;;;;;;24.43;56.06;101953.41;6253749;22;20039;-76
2023/08/11 06:16:15;;;;;;;11.95;10.00;;;;;;;24.42;56.79;101956.63;6280770;22;20071;-76
2023/08/11 06:18:42;;;;;;;15.75;11.55;;;;;;;24.21;57.36;101948.88;6279957;22;20411;-76
2023/08/11 06:21:09;;;;;;;12.07;10.90;;;;;;;23.71;57.87;101943.75;6280869;22;20018;-75
2023/08/11 06:23:36;;;;;;;12.90;11.25;;;;;;;23.59;58.80;101945.78;6280110;22;20012;-74
2023/08/11 06:26:02;;;;;;;14.90;11.27;;;;;;;23.26;59.22;101948.63;6279829;22;20013;-76
2023/08/11 06:28:29;;;;;;;13.15;10.60;;;;;;;22.84;61.04;101950.44;6252681;22;20028;-76
2023/08/11 06:30:55;;;;;;;12.23;10.93;;;;;;;22.65;61.76;101952.19;6280614;22;20019;-76
2023/08/11 06:33:25;;;;;;;18.98;11.32;;;;;;;22.35;63.36;101948.50;6252723;22;20036;-76
2023/08/11 06:35:51;;;;;;;15.32;11.63;;;;;;;22.28;63.74;101953.19;6253607;22;20020;-77
2023/08/11 06:38:18;;;;;;;12.20;10.98;;;;;;;22.02;64.25;101952.63;6280205;22;20016;-76
2023/08/11 06:40:45;;;;;;;12.18;10.90;;;;;;;21.93;64.86;101953.59;6280078;22;20016;-77
2023/08/11 06:43:11;;;;;;;15.23;10.75;;;;;;;21.85;65.17;101957.25;6280743;22;20457;-77
2023/08/11 06:45:38;;;;;;;17.38;11.02;;;;;;;21.73;65.17;101953.78;6279691;22;20040;-76
2023/08/11 06:48:05;;;;;;;13.45;10.40;;;;;;;21.75;66.25;101950.56;6280566;22;20031;-77
2023/08/11 06:50:32;;;;;;;17.35;11.05;;;;;;;21.74;65.43;101952.53;6279777;22;20018;-78
2023/08/11 06:52:58;;;;;;;15.20;11.15;;;;;;;21.69;66.07;101953.25;6280287;22;20100;-78
2023/08/11 06:55:26;;;;;;;15.63;10.27;;;;;;;21.74;65.11;101951.81;6279154;22;20016;-77
2023/08/11 06:57:52;;;;;;;12.52;10.52;;;;;;;21.64;64.78;101956.69;6253511;22;20056;-80
2023/08/11 07:00:19;;;;;;;11.85;10.55;;;;;;;21.62;66.70;101954.47;6279835;22;20358;-78
2023/08/11 07:02:45;;;;;;;11.23;9.95;;;;;;;21.69;66.65;101960.66;6280769;22;20087;-78
2023/08/11 07:05:12;;;;;;;12.73;9.95;;;;;;;21.69;67.42;101955.97;6280381;22;20040;-78
2023/08/11 07:07:39;;;;;;;14.77;10.50;;;;;;;21.66;65.53;101956.94;6252296;22;20408;-78
2023/08/11 07:10:06;;;;;;;14.52;10.23;;;;;;;21.69;66.73;101961.41;6280006;22;20456;-78
2023/08/11 07:12:33;;;;;;;14.73;10.30;;;;;;;21.81;65.58;101967.59;6280336;22;20092;-79
2023/08/11 07:14:59;;;;;;;13.85;10.00;;;;;;;21.74;65.70;101962.66;6280648;22;20017;-78
2023/08/11 07:17:26;;;;;;;14.68;10.57;;;;;;;21.74;66.19;101955.25;6227284;22;20422;-79
2023/08/11 07:19:53;;;;;;;13.05;11.73;;;;;;;21.73;65.96;101956.47;6253783;22;20051;-79
2023/08/11 07:22:19;;;;;;;14.80;10.60;;;;;;;21.75;66.17;101964.13;6280773;22;20051;-78
2023/08/11 07:24:46;;;;;;;12.60;10.60;;;;;;;21.83;66.69;101954.31;6281072;22;20012;-79
2023/08/11 07:27:12;;;;;;;11.10;9.75;;;;;;;21.99;66.57;101952.88;6281551;22;20079;-79
2023/08/11 07:29:41;;;;;;;11.30;10.20;;;;;;;22.06;66.57;101953.13;6280745;22;20130;-78
2023/08/11 07:32:08;;;;;;;16.45;10.40;;;;;;;22.22;66.89;101952.44;6281381;22;20008;-79
2023/08/11 07:34:36;;;;;;;12.07;10.10;;;;;;;22.29;65.82;101949.22;6280981;22;20020;-79
2023/08/11 07:37:04;;;;;;;21.58;10.23;;;;;;;22.44;67.10;101950.94;6254269;22;20070;-78
2023/08/11 07:39:31;;;;;;;10.93;9.77;;;;;;;22.67;66.50;101952.44;6280172;22;20075;-79
2023/08/11 07:42:02;;;;;;;14.95;10.15;;;;;;;22.74;65.72;101951.94;6281522;22;20072;-79
2023/08/11 07:44:33;;;;;;;23.92;10.73;;;;;;;22.70;64.77;101954.16;6280824;22;20406;-81
2023/08/11 07:47:03;;;;;;;11.15;10.05;;;;;;;22.83;64.77;101951.69;6253699;22;20480;-78
2023/08/11 07:49:30;;;;;;;15.30;10.52;;;;;;;23.10;65.34;101963.75;6253558;22;20012;-81
2023/08/11 07:51:57;;;;;;;10.77;9.65;;;;;;;23.26;63.76;101964.91;6280837;22;20339;-80
2023/08/11 07:54:24;;;;;;;13.20;9.30;;;;;;;23.45;64.52;101965.84;6253344;22;20508;-80
2023/08/11 07:56:51;;;;;;;11.00;9.48;;;;;;;23.55;62.75;101963.63;6254606;22;20016;-81
2023/08/11 07:59:17;;;;;;;15.05;8.93;;;;;;;23.62;64.17;101971.22;6281424;22;20103;-81
2023/08/11 08:01:44;;;;;;;12.70;9.10;;;;;;;23.73;63.07;101967.72;6281620;22;20438;-81
2023/08/11 08:04:11;;;;;;;9.88;8.73;;;;;;;23.95;63.58;101964.88;6281560;22;20020;-80
2023/08/11 08:06:45;;;;;;;12.20;9.15;;;;;;;23.94;61.22;101963.41;6280488;22;20023;-80
2023/08/11 08:09:14;;;;;;;9.88;8.82;;;;;;;24.01;61.82;101960.13;6281789;22;20047;-80
2023/08/11 08:11:46;;;;;;;9.50;8.50;;;;;;;24.18;62.32;101963.47;6280786;22;20191;-80
2023/08/11 08:14:13;;;;;;;9.68;8.80;;;;;;;24.31;60.23;101959.47;6281506;22;20464;-80
2023/08/11 08:16:41;;;;;;;16.50;8.65;;;;;;;24.40;61.54;101965.31;6280447;22;20024;-80
2023/08/11 08:19:10;;;;;;;12.93;8.02;;;;;;;24.65;61.13;101954.47;6281210;22;20099;-81
2023/08/11 08:21:38;;;;;;;11.90;8.48;;;;;;;24.73;59.53;101958.84;6280080;22;20012;-81
2023/08/11 08:24:05;;;;;;;9.38;7.30;;;;;;;24.86;59.25;101950.78;6281366;22;20132;-80
2023/08/11 08:26:32;;;;;;;8.07;7.38;;;;;;;25.04;58.66;101959.56;6280622;22;20462;-79
2023/08/11 08:28:59;;;;;;;9.20;7.20;;;;;;;25.08;58.71;101954.56;6281465;22;20446;-80
2023/08/11 08:31:27;;;;;;;9.25;7.68;;;;;;;25.07;58.36;101953.81;6253264;22;20070;-78
2023/08/11 08:33:54;;;;;;;14.35;7.72;;;;;;;25.19;58.38;101949.00;6281523;22;20350;-79
2023/08/11 08:36:21;;;;;;;8.50;7.63;;;;;;;25.38;59.01;101949.72;6280125;22;20026;-79
2023/08/11 08:38:47;;;;;;;10.70;8.57;;;;;;;25.72;58.38;101950.06;6253894;22;20112;-79
2023/08/11 08:41:18;;;;;;;14.75;8.32;;;;;;;25.82;56.62;101958.59;6254341;22;20465;-79
2023/08/11 08:43:46;;;;;;;10.93;7.72;;;;;;;25.84;57.18;101953.38;6281632;22;20028;-79
2023/08/11 08:46:15;;;;;;;6.78;6.10;;;;;;;26.06;56.70;101955.75;6281513;22;20020;-79
2023/08/11 08:48:52;;;;;;;7.68;6.88;;;;;;;26.20;57.71;101946.38;6280425;22;20396;-79
2023/08/11 08:51:19;;;;;;;6.28;5.75;;;;;;;26.35;55.91;101953.38;6280118;22;20016;-82
2023/08/11 08:53:46;;;;;;;6.57;5.90;;;;;;;26.37;55.74;101948.13;6281048;22;20468;-79
2023/08/11 08:56:14;;;;;;;10.85;6.38;;;;;;;26.43;54.46;101941.28;6254416;22;20095;-82
2023/08/11 08:58:41;;;;;;;6.75;6.13;;;;;;;26.60;53.84;101943.75;6280690;22;20018;-84
2023/08/11 09:01:10;;;;;;;7.82;5.95;;;;;;;26.74;54.02;101941.75;6281397;22;20013;-84
2023/08/11 09:03:37;;;;;;;7.82;6.10;;;;;;;26.94;54.01;101943.13;6253128;22;20695;-83
2023/08/11 09:06:05;;;;;;;7.40;6.20;;;;;;;27.10;54.53;101942.84;6253686;22;20004;-83
2023/08/11 09:08:32;;;;;;;7.60;6.38;;;;;;;27.45;54.03;101947.06;6253487;22;20410;-84
2023/08/11 09:11:00;;;;;;;12.82;6.47;;;;;;;27.18;52.66;101957.34;6281715;22;20012;-84
2023/08/11 09:13:26;;;;;;;6.82;6.07;;;;;;;26.81;53.97;101939.13;6253456;22;20019;-84
2023/08/11 09:15:54;;;;;;;7.22;5.60;;;;;;;26.62;57.05;101943.22;6253918;22;20047;-84
2023/08/11 09:18:22;;;;;;;7.03;6.43;;;;;;;26.79;55.17;101941.63;6280330;22;20023;-85
2023/08/11 09:20:49;;;;;;;6.15;5.65;;;;;;;26.79;54.90;101943.66;6253210;22;20016;-84
2023/08/11 09:23:17;;;;;;;11.50;6.28;;;;;;;27.25;55.90;101945.00;6254466;22;20012;-83
2023/08/11 09:25:43;;;;;;;8.82;6.25;;;;;;;27.74;55.41;101955.44;6281316;22;20016;-83
2023/08/11 09:28:10;;;;;;;7.40;6.60;;;;;;;27.67;52.96;101953.34;6281373;22;20099;-84
2023/08/11 09:30:37;;;;;;;6.97;6.30;;;;;;;27.61;53.53;101949.97;6280613;22;20043;-80
2023/08/11 09:33:07;;;;;;;10.57;5.90;;;;;;;27.56;53.86;101943.38;6281535;22;20022;-80
2023/08/11 09:35:34;;;;;;;6.38;4.72;;;;;;;27.44;51.98;101953.06;6279695;22;20080;-79
2023/08/11 09:38:01;;;;;;;6.38;4.20;;;;;;;27.53;54.20;101947.91;6282478;22;20143;-91
2023/08/11 09:40:28;;;;;;;4.55;4.25;;;;;;;27.85;53.10;101949.72;6283846;22;20091;-91
2023/08/11 09:42:55;;;;;;;6.93;4.55;;;;;;;28.07;52.91;101951.16;6283017;22;20024;-94
2023/08/11 09:45:23;;;;;;;4.68;4.28;;;;;;;28.14;50.90;101951.25;6284037;22;20047;-93
2023/08/11 09:47:50;;;;;;;7.75;4.63;;;;;;;28.23;51.77;101946.59;6282920;22;20018;-82
2023/08/11 09:50:17;;;;;;;6.00;4.65;;;;;;;28.29;52.10;101941.72;6282406;22;20064;-86
2023/08/11 09:52:44;;;;;;;10.02;4.82;;;;;;;28.27;50.67;101947.72;6281398;22;20079;-84
2023/08/11 09:55:12;;;;;;;8.95;4.78;;;;;;;28.20;50.89;101949.09;6281348;22;20019;-86
2023/08/11 09:57:43;;;;;;;5.15;4.75;;;;;;;28.18;51.48;101948.91;6280615;22;20018;-90
2023/08/11 10:00:13;;;;;;;5.97;4.38;;;;;;;28.34;51.59;101946.31;6283320;22;20047;-93
2023/08/11 10:02:49;;;;;;;4.80;4.22;;;;;;;28.58;51.67;101940.47;6280959;22;20850;-88
2023/08/11 10:05:17;;;;;;;7.82;4.40;;;;;;;28.51;50.68;101947.34;6281817;22;20111;-88
2023/08/11 10:07:48;;;;;;;6.25;4.18;;;;;;;28.47;50.28;101938.00;6281319;22;20012;-81
2023/08/11 10:10:19;;;;;;;;;;;;;;;28.52;53.42;101937.13;6281939;22;20087;-91
2023/08/11 10:12:59;;;;;;;7.45;4.20;;;;;;;28.64;50.47;101945.81;6282071;22;20736;-86
2023/08/11 10:15:27;;;;;;;4.30;4.00;;;;;;;28.91;50.77;101949.06;6281935;22;20066;-83
2023/08/11 10:17:54;;;;;;;4.43;3.85;;;;;;;28.91;50.23;101949.81;6280700;22;20012;-85
2023/08/11 10:20:21;;;;;;;4.63;3.58;;;;;;;28.83;52.03;101963.47;6253914;22;20043;-83
2023/08/11 10:22:51;;;;;;;4.53;4.13;;;;;;;28.83;49.81;101949.03;6253509;22;20020;-90
2023/08/11 10:25:18;;;;;;;4.30;4.00;;;;;;;28.90;50.44;101959.31;6280690;22;20023;-87
2023/08/11 10:27:46;;;;;;;6.57;4.07;;;;;;;29.25;50.43;101957.09;6253695;22;20026;-86
2023/08/11 10:30:14;;;;;;;4.45;4.07;;;;;;;29.46;50.00;101955.75;6280791;22;20055;-88
2023/08/11 10:32:41;;;;;;;5.55;4.15;;;;;;;29.50;48.02;101947.16;6279664;22;20019;-86
2023/08/11 10:35:25;;;;;;;5.70;4.13;;;;;;;29.57;49.26;101945.72;6281034;22;20476;-89
2023/08/11 10:37:57;;;;;;;4.45;3.42;;;;;;;29.42;47.35;101947.13;6228489;22;20020;-88
2023/08/11 10:40:33;;;;;;;4.03;3.63;;;;;;;29.52;48.26;101939.84;6280248;22;20113;-90
2023/08/11 10:43:03;;;;;;;4.55;4.15;;;;;;;29.44;48.06;101941.84;6254821;22;20353;-84
2023/08/11 10:45:32;;;;;;;4.40;4.00;;;;;;;29.43;47.22;101943.13;6280969;22;20439;-85
2023/08/11 10:48:05;;;;;;;10.10;4.10;;;;;;;29.52;48.03;101939.84;6253018;22;20051;-86
2023/08/11 10:50:32;;;;;;;4.85;4.03;;;;;;;29.63;49.01;101938.03;6280200;22;20446;-90
2023/08/11 10:53:20;;;;;;;7.15;3.95;;;;;;;29.79;48.14;101945.00;6280302;22;20023;-86
2023/08/11 10:56:05;;;;;;;4.47;3.90;;;;;;;29.73;47.19;101930.72;6280895;22;20030;-85
2023/08/11 10:58:32;;;;;;;4.45;3.95;;;;;;;29.67;47.55;101935.66;6279996;22;20020;-88
2023/08/11 11:00:59;;;;;;;6.63;3.50;;;;;;;29.86;47.47;101934.06;6280133;22;20094;-84
2023/08/11 11:03:26;;;;;;;3.92;3.63;;;;;;;29.94;47.27;101934.06;6279957;22;20378;-86
2023/08/11 11:05:52;;;;;;;4.07;3.53;;;;;;;30.07;46.77;101922.19;6280565;22;20070;-85
2023/08/11 11:08:19;;;;;;;3.05;2.85;;;;;;;30.28;46.02;101927.50;6280069;22;20020;-84
2023/08/11 11:10:46;;;;;;;2.65;2.45;;;;;;;30.19;45.37;101921.28;6280410;22;20452;-86
2023/08/11 11:13:16;;;;;;;4.50;2.65;;;;;;;30.17;45.81;101921.09;6254335;22;20043;-81
2023/08/11 11:15:43;;;;;;;4.75;2.95;;;;;;;30.24;44.29;101919.63;6280047;22;20020;-81
2023/08/11 11:18:10;;;;;;;6.72;3.28;;;;;;;30.27;45.42;101918.53;6280698;22;20453;-82
2023/08/11 11:20:37;;;;;;;2.83;2.63;;;;;;;30.40;46.79;101923.78;6279804;22;20066;-82
2023/08/11 11:23:05;;;;;;;3.00;2.80;;;;;;;30.57;44.72;101923.25;6280511;22;20438;-82